Time;durP1;ratioP1;P1;durP2;ratioP2;P2;SDS_P1;SDS_P2;PMS_P1;PMS_P2;Temp;Humidity;BMP_temperature;BMP_pressure;BME280_temperature;BME280_humidity;BME280_pressure;Samples;Min_cycle;Max_cycle;Signal;HPM_P1;HPM_P2
2022/09/22 00:01:37;;;;;;;0.00;0.00;;;17.80;73.30;;;;;;3998078;29;20221;-62
2022/09/22 00:04:18;;;;;;;0.00;0.00;;;17.80;73.40;;;;;;3986291;29;20065;-62
2022/09/22 00:07:00;;;;;;;0.10;0.10;;;17.80;73.40;;;;;;3986196;29;20057;-61
2022/09/22 00:09:22;;;;;;;0.00;0.00;;;17.80;73.40;;;;;;3997479;29;20062;-63
2022/09/22 00:11:46;;;;;;;0.00;0.00;;;17.80;73.40;;;;;;3986315;29;20118;-62
2022/09/22 00:14:28;;;;;;;0.10;0.10;;;17.70;73.30;;;;;;3985827;29;20127;-62
2022/09/22 00:16:53;;;;;;;0.00;0.00;;;17.70;73.40;;;;;;3985786;29;20050;-62
2022/09/22 00:19:17;;;;;;;0.35;0.35;;;17.80;73.40;;;;;;3997488;29;20209;-62
2022/09/22 00:21:59;;;;;;;0.00;0.00;;;17.70;73.30;;;;;;3979608;29;20065;-62
2022/09/22 00:24:22;;;;;;;0.00;0.00;;;17.70;73.30;;;;;;3973302;29;20051;-62
2022/09/22 00:27:03;;;;;;;0.08;0.08;;;17.70;73.30;;;;;;3956191;29;20054;-62
2022/09/22 00:29:44;;;;;;;0.00;0.00;;;17.70;73.40;;;;;;3957138;29;20088;-62
2022/09/22 00:32:08;;;;;;;0.00;0.00;;;17.70;73.40;;;;;;3976763;29;20054;-62
2022/09/22 00:34:30;;;;;;;0.00;0.00;;;17.70;73.40;;;;;;3985703;29;20111;-62
2022/09/22 00:37:11;;;;;;;0.00;0.00;;;17.70;73.40;;;;;;3971566;29;20380;-61
2022/09/22 00:39:32;;;;;;;0.00;0.00;;;17.70;73.40;;;;;;3970411;29;20065;-63
2022/09/22 00:41:54;;;;;;;0.00;0.00;;;17.60;73.40;;;;;;3984328;29;20107;-62
2022/09/22 00:44:38;;;;;;;0.00;0.00;;;17.60;73.40;;;;;;3971704;29;20058;-62
2022/09/22 00:47:30;;;;;;;0.00;0.00;;;17.60;73.50;;;;;;3970833;29;20053;-63
2022/09/22 00:49:58;;;;;;;0.00;0.00;;;17.60;73.70;;;;;;3970309;29;20059;-63
2022/09/22 00:52:22;;;;;;;0.00;0.00;;;17.60;73.70;;;;;;3970349;29;20119;-63
2022/09/22 00:55:08;;;;;;;0.00;0.00;;;17.60;73.70;;;;;;3967440;29;20061;-63
2022/09/22 00:57:50;;;;;;;1.17;1.17;;;17.60;73.60;;;;;;3970487;29;20490;-62
2022/09/22 01:00:14;;;;;;;0.00;0.00;;;17.60;73.50;;;;;;3970632;29;20054;-62
2022/09/22 01:02:59;;;;;;;0.00;0.00;;;17.60;73.50;;;;;;3971040;29;20054;-62
2022/09/22 01:05:42;;;;;;;0.00;0.00;;;17.60;73.50;;;;;;3970406;29;20066;-62
2022/09/22 01:08:24;;;;;;;0.00;0.00;;;17.60;73.40;;;;;;3984975;29;20057;-61
2022/09/22 01:10:48;;;;;;;0.00;0.00;;;17.50;73.30;;;;;;3985811;29;20057;-62
2022/09/22 01:13:35;;;;;;;0.30;0.30;;;17.50;73.30;;;;;;3985940;29;20271;-62
2022/09/22 01:16:29;;;;;;;0.00;0.00;;;17.50;73.30;;;;;;3985710;29;20149;-62
2022/09/22 01:19:52;;;;;;;0.00;0.00;;;17.50;73.30;;;;;;3987731;29;20054;-62
2022/09/22 01:22:27;;;;;;;0.00;0.00;;;17.50;73.50;;;;;;3950535;29;20161;-62
2022/09/22 01:25:38;;;;;;;0.38;0.25;;;17.50;73.30;;;;;;3956545;29;20062;-62
2022/09/22 01:28:48;;;;;;;0.00;0.00;;;17.50;73.40;;;;;;3955613;29;20136;-62
2022/09/22 01:31:37;;;;;;;0.00;0.00;;;17.50;73.50;;;;;;3955438;29;20077;-62
2022/09/22 01:34:06;;;;;;;0.05;0.05;;;17.50;73.60;;;;;;3983661;29;20081;-62
2022/09/22 01:36:53;;;;;;;0.00;0.00;;;17.40;73.70;;;;;;3985903;29;20508;-62
2022/09/22 01:39:41;;;;;;;0.20;0.20;;;17.40;73.70;;;;;;3985296;29;20094;-63
2022/09/22 01:42:09;;;;;;;0.00;0.00;;;17.40;73.70;;;;;;3985426;29;20469;-62
2022/09/22 01:44:35;;;;;;;0.00;0.00;;;17.40;73.70;;;;;;3993090;29;20402;-62
2022/09/22 01:47:21;;;;;;;0.00;0.00;;;17.40;73.70;;;;;;3979717;29;20407;-62
2022/09/22 01:49:48;;;;;;;0.35;0.35;;;17.40;73.80;;;;;;3987230;29;20060;-61
2022/09/22 01:52:15;;;;;;;0.08;0.08;;;17.40;73.70;;;;;;3987882;29;20050;-70
2022/09/22 01:54:44;;;;;;;0.00;0.00;;;17.40;73.80;;;;;;3988213;29;20130;-70
2022/09/22 01:57:31;;;;;;;2.30;1.85;;;17.30;73.70;;;;;;3973513;29;20058;-70
2022/09/22 02:00:12;;;;;;;0.00;0.00;;;17.40;73.70;;;;;;3974030;29;20066;-70
2022/09/22 02:03:01;;;;;;;0.00;0.00;;;17.30;73.70;;;;;;3997691;29;20567;-69
2022/09/22 02:05:45;;;;;;;0.63;0.63;;;17.30;73.70;;;;;;3997743;29;20157;-70
2022/09/22 02:08:32;;;;;;;0.00;0.00;;;17.30;73.70;;;;;;3988239;29;20053;-70
2022/09/22 02:11:15;;;;;;;0.00;0.00;;;17.30;73.70;;;;;;3987291;29;20085;-70
2022/09/22 02:13:38;;;;;;;0.00;0.00;;;17.30;73.70;;;;;;3987706;29;20133;-70
2022/09/22 02:16:00;;;;;;;0.00;0.00;;;17.20;73.60;;;;;;3973219;29;20086;-70
2022/09/22 02:18:27;;;;;;;0.00;0.00;;;17.30;73.70;;;;;;3972730;29;20551;-63
2022/09/22 02:20:50;;;;;;;0.00;0.00;;;17.30;73.80;;;;;;3985150;29;20065;-62
2022/09/22 02:23:13;;;;;;;0.90;0.90;;;17.20;73.70;;;;;;3987747;29;20058;-62
2022/09/22 02:25:36;;;;;;;0.10;0.10;;;17.30;73.70;;;;;;3973044;29;20119;-62
2022/09/22 02:28:21;;;;;;;0.00;0.00;;;17.20;73.60;;;;;;3976303;29;20064;-70
2022/09/22 02:31:04;;;;;;;0.00;0.00;;;17.20;73.60;;;;;;3995235;29;20198;-62
2022/09/22 02:34:01;;;;;;;0.00;0.00;;;17.20;73.60;;;;;;3987091;29;20463;-62
2022/09/22 02:36:55;;;;;;;0.00;0.00;;;17.20;73.60;;;;;;3987937;29;20097;-69
2022/09/22 02:39:42;;;;;;;0.85;0.85;;;17.20;73.60;;;;;;3987106;29;20435;-69
2022/09/22 02:42:28;;;;;;;0.00;0.00;;;17.20;73.70;;;;;;3986777;29;20402;-69
2022/09/22 02:44:56;;;;;;;0.00;0.00;;;17.20;73.60;;;;;;3986081;29;20062;-69
2022/09/22 02:47:27;;;;;;;0.00;0.00;;;17.20;73.70;;;;;;3987217;29;20378;-69
2022/09/22 02:50:12;;;;;;;0.00;0.00;;;17.20;73.60;;;;;;3987502;29;20071;-69
2022/09/22 02:52:37;;;;;;;0.00;0.00;;;17.20;73.60;;;;;;3987087;29;20677;-69
2022/09/22 02:55:18;;;;;;;0.00;0.00;;;17.10;73.60;;;;;;3987755;29;20683;-69
2022/09/22 02:57:40;;;;;;;0.00;0.00;;;17.10;73.70;;;;;;3987094;29;20134;-68
2022/09/22 03:00:21;;;;;;;0.00;0.00;;;17.10;73.50;;;;;;3986157;29;20592;-69
2022/09/22 03:03:02;;;;;;;0.00;0.00;;;17.10;73.60;;;;;;3986232;29;20198;-62
2022/09/22 03:05:25;;;;;;;0.38;0.38;;;17.10;73.50;;;;;;3987206;29;20153;-64
2022/09/22 03:07:47;;;;;;;0.00;0.00;;;17.10;73.50;;;;;;3987587;29;20050;-62
2022/09/22 03:10:11;;;;;;;0.00;0.00;;;17.10;73.60;;;;;;3982126;29;20054;-62
2022/09/22 03:12:51;;;;;;;0.00;0.00;;;17.10;73.60;;;;;;3987427;29;20057;-62
2022/09/22 03:15:52;;;;;;;0.00;0.00;;;17.10;73.60;;;;;;3986597;29;20565;-62
2022/09/22 03:18:15;;;;;;;0.40;0.40;;;17.00;73.50;;;;;;3987015;29;20061;-62
2022/09/22 03:20:57;;;;;;;0.00;0.00;;;17.00;73.60;;;;;;3973292;29;20062;-62
2022/09/22 03:23:19;;;;;;;0.68;0.63;;;17.00;73.70;;;;;;3985705;29;20110;-62
2022/09/22 03:25:41;;;;;;;0.73;0.73;;;17.00;73.60;;;;;;3985468;29;20070;-62
2022/09/22 03:28:04;;;;;;;0.00;0.00;;;17.00;73.70;;;;;;3986507;29;20056;-62
2022/09/22 03:30:26;;;;;;;0.00;0.00;;;17.00;73.60;;;;;;3986941;29;20054;-62
2022/09/22 03:32:48;;;;;;;0.00;0.00;;;17.00;73.70;;;;;;3986356;29;20062;-62
2022/09/22 03:35:29;;;;;;;0.00;0.00;;;17.00;73.70;;;;;;3986749;29;20232;-62
2022/09/22 03:37:52;;;;;;;0.00;0.00;;;17.00;73.70;;;;;;3969274;29;20062;-62
2022/09/22 03:40:14;;;;;;;0.00;0.00;;;16.90;73.70;;;;;;3971812;29;20058;-62
2022/09/22 03:42:36;;;;;;;0.00;0.00;;;16.90;73.60;;;;;;3978555;29;20050;-62
2022/09/22 03:44:58;;;;;;;0.43;0.43;;;16.90;74.60;;;;;;3986095;29;20076;-62
2022/09/22 03:47:21;;;;;;;0.00;0.00;;;16.90;73.60;;;;;;3986485;29;20114;-64
2022/09/22 03:50:01;;;;;;;0.00;0.00;;;16.90;73.60;;;;;;3995220;29;20126;-62
2022/09/22 03:52:24;;;;;;;0.00;0.00;;;16.90;73.70;;;;;;3986585;29;20498;-63
2022/09/22 03:55:08;;;;;;;0.00;0.00;;;16.90;73.70;;;;;;3986249;29;20062;-63
2022/09/22 03:57:30;;;;;;;0.00;0.00;;;16.90;73.80;;;;;;3986413;29;20069;-63
2022/09/22 04:00:13;;;;;;;0.00;0.00;;;16.90;73.70;;;;;;3971400;29;20576;-62
2022/09/22 04:02:54;;;;;;;0.00;0.00;;;16.90;73.70;;;;;;3970946;29;20070;-62
2022/09/22 04:05:16;;;;;;;0.38;0.38;;;16.90;73.80;;;;;;3982482;29;20134;-64
2022/09/22 04:07:56;;;;;;;0.00;0.00;;;16.80;73.80;;;;;;3986592;29;20393;-63
2022/09/22 04:10:20;;;;;;;0.00;0.00;;;16.80;73.80;;;;;;3986244;29;20782;-62
2022/09/22 04:12:42;;;;;;;0.00;0.00;;;16.80;74.00;;;;;;3986010;29;20516;-62
2022/09/22 04:15:05;;;;;;;0.00;0.00;;;16.80;74.20;;;;;;3985641;29;20438;-62
2022/09/22 04:17:46;;;;;;;0.00;0.00;;;16.80;74.20;;;;;;3986617;29;20056;-62
2022/09/22 04:20:10;;;;;;;0.00;0.00;;;16.80;74.40;;;;;;3986257;29;20486;-63
2022/09/22 04:22:51;;;;;;;1.25;0.75;;;16.80;74.50;;;;;;3986075;29;20137;-62
2022/09/22 04:25:13;;;;;;;0.00;0.00;;;16.80;74.50;;;;;;3986366;29;20058;-70
2022/09/22 04:27:55;;;;;;;0.43;0.43;;;16.80;74.50;;;;;;3986501;29;20077;-71
2022/09/22 04:30:36;;;;;;;0.10;0.10;;;16.80;74.50;;;;;;3972200;29;20131;-70
2022/09/22 04:32:59;;;;;;;0.00;0.00;;;16.80;74.60;;;;;;3976501;29;20053;-69
2022/09/22 04:35:21;;;;;;;0.13;0.13;;;16.80;74.60;;;;;;3986284;29;20053;-70
2022/09/22 04:37:43;;;;;;;0.00;0.00;;;16.80;74.60;;;;;;3986257;29;20065;-68
2022/09/22 04:40:07;;;;;;;0.13;0.13;;;16.80;74.50;;;;;;3986552;29;20146;-70
2022/09/22 04:42:28;;;;;;;0.00;0.00;;;16.80;74.50;;;;;;3985711;29;20506;-69
2022/09/22 04:45:11;;;;;;;0.30;0.30;;;16.80;74.50;;;;;;3972247;29;20138;-69
2022/09/22 04:47:33;;;;;;;0.00;0.00;;;16.70;74.40;;;;;;3975049;29;20295;-69
2022/09/22 04:49:56;;;;;;;0.00;0.00;;;16.70;74.50;;;;;;3986472;29;20061;-69
2022/09/22 04:52:18;;;;;;;0.00;0.00;;;16.70;74.60;;;;;;3997052;29;20061;-69
2022/09/22 04:54:40;;;;;;;0.00;0.00;;;16.70;74.60;;;;;;3985654;29;20068;-69
2022/09/22 04:57:02;;;;;;;1.02;0.95;;;16.70;74.60;;;;;;3970905;29;20461;-68
2022/09/22 04:59:24;;;;;;;0.00;0.00;;;16.70;74.60;;;;;;3986317;29;20088;-69
2022/09/22 05:02:07;;;;;;;0.00;0.00;;;16.70;74.60;;;;;;3985934;29;20054;-66
2022/09/22 05:04:29;;;;;;;0.00;0.00;;;16.60;74.50;;;;;;3980832;29;20077;-66
2022/09/22 05:07:10;;;;;;;0.00;0.00;;;16.70;75.00;;;;;;3984939;29;20509;-66
2022/09/22 05:09:51;;;;;;;0.00;0.00;;;16.70;75.00;;;;;;3980566;29;20494;-68
2022/09/22 05:12:13;;;;;;;0.10;0.10;;;16.70;74.60;;;;;;3985207;29;20058;-66
2022/09/22 05:14:35;;;;;;;0.55;0.55;;;16.70;74.40;;;;;;3971153;29;20111;-60
2022/09/22 05:17:17;;;;;;;0.00;0.00;;;16.70;74.30;;;;;;3972041;29;20062;-60
2022/09/22 05:19:40;;;;;;;0.00;0.00;;;16.70;75.10;;;;;;3968912;29;20102;-61
2022/09/22 05:22:21;;;;;;;0.10;0.10;;;16.60;74.10;;;;;;3984001;29;20061;-60
2022/09/22 05:25:02;;;;;;;0.00;0.00;;;16.60;74.10;;;;;;3959217;29;20510;-60
2022/09/22 05:27:24;;;;;;;0.00;0.00;;;16.60;74.50;;;;;;3959936;29;20133;-61
2022/09/22 05:30:06;;;;;;;0.10;0.10;;;16.60;74.60;;;;;;3973554;29;20850;-60
2022/09/22 05:32:49;;;;;;;0.00;0.00;;;16.60;74.50;;;;;;3986683;29;20065;-60
2022/09/22 05:35:11;;;;;;;0.00;0.00;;;16.60;74.50;;;;;;3973273;29;20050;-60
2022/09/22 05:37:34;;;;;;;0.00;0.00;;;16.50;74.30;;;;;;3973711;29;20556;-60
2022/09/22 05:39:56;;;;;;;0.20;0.20;;;16.50;74.30;;;;;;3973201;29;20054;-60
2022/09/22 05:42:19;;;;;;;0.00;0.00;;;16.50;74.30;;;;;;3985212;29;20095;-68
2022/09/22 05:44:59;;;;;;;;;;;16.50;74.30;;;;;;3981024;29;20065;-67
2022/09/22 05:47:21;;;;;;;0.00;0.00;;;16.50;74.30;;;;;;3981547;29;20015;-68
2022/09/22 05:49:45;;;;;;;0.00;0.00;;;16.50;74.20;;;;;;3993743;29;20050;-60
2022/09/22 05:52:06;;;;;;;0.08;0.08;;;16.50;74.30;;;;;;3972878;29;20151;-67
2022/09/22 05:54:28;;;;;;;0.00;0.00;;;16.50;74.20;;;;;;3973334;29;20062;-67
2022/09/22 05:56:51;;;;;;;0.00;0.00;;;16.40;75.00;;;;;;3974516;29;20065;-65
2022/09/22 05:59:12;;;;;;;0.00;0.00;;;16.40;74.10;;;;;;3987968;29;20161;-60
2022/09/22 06:01:53;;;;;;;0.00;0.00;;;16.40;74.10;;;;;;3979715;29;20119;-60
2022/09/22 06:04:20;;;;;;;0.00;0.00;;;16.40;74.10;;;;;;3987724;29;20081;-61
2022/09/22 06:06:43;;;;;;;0.00;0.00;;;16.40;74.10;;;;;;3987624;29;20066;-60
2022/09/22 06:09:24;;;;;;;0.00;0.00;;;16.40;74.00;;;;;;3987652;29;20210;-60
2022/09/22 06:12:07;;;;;;;0.00;0.00;;;16.40;75.00;;;;;;3988278;29;20506;-60
2022/09/22 06:14:28;;;;;;;0.15;0.15;;;16.40;74.00;;;;;;3987698;29;20073;-61
2022/09/22 06:16:50;;;;;;;0.25;0.25;;;16.40;74.00;;;;;;3987687;29;20198;-61
2022/09/22 06:19:13;;;;;;;0.10;0.10;;;16.40;74.00;;;;;;3986430;29;20111;-66
2022/09/22 06:21:35;;;;;;;0.70;0.70;;;16.40;74.40;;;;;;3987801;29;20119;-65
2022/09/22 06:23:58;;;;;;;0.00;0.00;;;16.40;74.60;;;;;;3987910;29;20062;-60
2022/09/22 06:26:20;;;;;;;0.00;0.00;;;16.40;75.00;;;;;;3987146;29;20126;-60
2022/09/22 06:29:01;;;;;;;0.00;0.00;;;16.40;74.80;;;;;;3997040;29;20186;-66
2022/09/22 06:31:42;;;;;;;0.10;0.10;;;16.40;74.60;;;;;;3987259;29;20110;-60
2022/09/22 06:34:24;;;;;;;0.00;0.00;;;16.40;74.50;;;;;;3987368;29;20423;-60
2022/09/22 06:36:46;;;;;;;0.00;0.00;;;16.40;74.20;;;;;;3986691;29;20144;-64
2022/09/22 06:39:28;;;;;;;0.00;0.00;;;16.30;74.10;;;;;;3972598;29;20407;-60
2022/09/22 06:41:51;;;;;;;0.05;0.05;;;16.30;74.00;;;;;;3972660;29;20131;-60
2022/09/22 06:44:31;;;;;;;0.00;0.00;;;16.30;73.90;;;;;;3974786;29;20556;-60
2022/09/22 06:47:13;;;;;;;0.38;0.17;;;16.30;73.80;;;;;;3974524;29;20065;-61
2022/09/22 06:49:35;;;;;;;0.00;0.00;;;16.30;73.70;;;;;;3986788;29;20493;-60
2022/09/22 06:52:15;;;;;;;0.10;0.10;;;16.30;73.80;;;;;;3971767;29;20356;-61
2022/09/22 06:55:01;;;;;;;0.00;0.00;;;16.30;73.70;;;;;;3981715;29;20194;-61
2022/09/22 06:57:31;;;;;;;1.23;0.95;;;16.30;73.80;;;;;;3986330;29;20134;-60
2022/09/22 07:00:13;;;;;;;0.00;0.00;;;16.30;73.80;;;;;;3987798;29;20058;-60
2022/09/22 07:02:35;;;;;;;0.00;0.00;;;16.20;73.80;;;;;;3987646;29;20056;-60
2022/09/22 07:04:58;;;;;;;0.00;0.00;;;16.30;73.90;;;;;;3987265;29;20042;-60
2022/09/22 07:07:20;;;;;;;0.00;0.00;;;16.30;73.80;;;;;;3986958;29;20103;-60
2022/09/22 07:09:42;;;;;;;0.28;0.28;;;16.30;73.80;;;;;;3987118;29;20537;-60
2022/09/22 07:12:25;;;;;;;0.00;0.00;;;16.30;73.80;;;;;;3994266;29;20118;-60
2022/09/22 07:14:48;;;;;;;33.70;1.45;;;16.40;73.70;;;;;;3990604;29;20434;-63
2022/09/22 07:17:10;;;;;;;0.00;0.00;;;16.40;73.70;;;;;;3987556;29;20550;-64
2022/09/22 07:19:35;;;;;;;0.20;0.20;;;16.50;73.60;;;;;;3986734;29;20055;-64
2022/09/22 07:22:18;;;;;;;0.20;0.20;;;16.50;73.50;;;;;;3971715;29;20062;-64
2022/09/22 07:24:40;;;;;;;0.80;0.80;;;16.50;73.30;;;;;;3983922;29;20153;-64
2022/09/22 07:27:25;;;;;;;0.65;0.65;;;16.60;73.30;;;;;;3974718;29;20065;-64
2022/09/22 07:30:09;;;;;;;0.00;0.00;;;16.60;73.20;;;;;;3971645;29;20192;-63
2022/09/22 07:32:34;;;;;;;0.50;0.50;;;16.70;73.10;;;;;;3983309;29;20182;-64
2022/09/22 07:34:56;;;;;;;0.13;0.13;;;16.70;73.10;;;;;;3985482;29;20110;-63
2022/09/22 07:37:39;;;;;;;0.00;0.00;;;16.70;73.00;;;;;;3985692;29;20434;-63
2022/09/22 07:40:02;;;;;;;0.00;0.00;;;16.80;73.10;;;;;;3986686;29;20050;-64
2022/09/22 07:42:24;;;;;;;0.00;0.00;;;16.80;72.90;;;;;;3973105;29;20100;-64
2022/09/22 07:50:44;;;;;;;0.32;0.32;;;16.80;72.90;;;;;;3995836;29;20270;-65
2022/09/22 07:53:06;;;;;;;0.32;0.32;;;16.90;73.10;;;;;;3985990;29;20061;-66
2022/09/22 07:55:28;;;;;;;0.10;0.10;;;16.90;73.20;;;;;;3985834;29;20046;-65
2022/09/22 07:58:08;;;;;;;0.13;0.13;;;16.90;73.10;;;;;;3986425;29;20121;-65
2022/09/22 08:00:53;;;;;;;0.00;0.00;;;17.00;73.40;;;;;;3984463;29;20391;-65
2022/09/22 08:03:17;;;;;;;0.20;0.20;;;17.00;73.20;;;;;;3986632;29;20425;-66
2022/09/22 08:06:01;;;;;;;0.00;0.00;;;17.10;73.20;;;;;;3985364;29;20052;-66
2022/09/22 08:08:28;;;;;;;0.00;0.00;;;17.10;73.10;;;;;;3986317;29;20057;-65
2022/09/22 08:11:13;;;;;;;0.00;0.00;;;17.20;73.10;;;;;;3986701;29;20187;-64
2022/09/22 08:13:56;;;;;;;1.23;1.17;;;17.20;73.10;;;;;;3985098;29;20069;-65
2022/09/22 08:16:39;;;;;;;0.00;0.00;;;17.20;72.90;;;;;;3986588;29;20134;-64
2022/09/22 08:19:22;;;;;;;0.00;0.00;;;17.30;72.80;;;;;;3986185;29;20198;-64
2022/09/22 08:22:03;;;;;;;0.00;0.00;;;17.30;72.60;;;;;;3984749;29;20057;-65
2022/09/22 08:24:25;;;;;;;0.13;0.13;;;17.30;73.40;;;;;;3986517;29;20050;-65
2022/09/22 08:27:06;;;;;;;0.00;0.00;;;17.40;72.20;;;;;;3985967;29;20057;-65
2022/09/22 08:29:28;;;;;;;0.00;0.00;;;17.40;72.20;;;;;;3986171;29;20655;-64
2022/09/22 08:31:50;;;;;;;0.00;0.00;;;17.40;72.10;;;;;;3986749;29;20054;-65
2022/09/22 08:34:33;;;;;;;0.00;0.00;;;17.40;72.00;;;;;;3985781;29;20066;-65
2022/09/22 08:36:54;;;;;;;0.20;0.20;;;17.50;72.10;;;;;;3985726;29;20078;-64
2022/09/22 08:39:35;;;;;;;0.00;0.00;;;17.50;72.00;;;;;;3986303;29;20111;-59
2022/09/22 08:42:09;;;;;;;0.00;0.00;;;17.50;71.90;;;;;;3986062;29;20455;-61
2022/09/22 08:44:36;;;;;;;0.10;0.10;;;17.50;71.90;;;;;;3985856;29;20189;-64
2022/09/22 08:51:50;;;;;;;0.00;0.00;;;17.50;71.90;;;;;;3985985;29;20073;-64
2022/09/22 08:53:41;;;;;;;0.00;0.00;;;17.50;71.70;;;;;;3985992;29;20050;-64
2022/09/22 08:56:22;;;;;;;0.00;0.00;;;17.50;71.70;;;;;;3985898;29;20061;-65
2022/09/22 08:58:51;;;;;;;0.00;0.00;;;17.50;71.70;;;;;;3984729;29;20152;-66
2022/09/22 09:01:29;;;;;;;1.00;0.32;;;17.50;71.30;;;;;;3985714;29;20061;-64
2022/09/22 09:04:05;;;;;;;2.20;1.00;;;17.50;71.20;;;;;;3971022;29;20523;-64
2022/09/22 09:06:39;;;;;;;0.00;0.00;;;17.50;71.20;;;;;;3970907;29;20854;-64
2022/09/22 09:09:21;;;;;;;0.00;0.00;;;17.60;71.20;;;;;;3973616;29;20050;-65
2022/09/22 09:12:29;;;;;;;0.00;0.00;;;17.60;71.20;;;;;;3986197;29;20052;-64
2022/09/22 09:15:29;;;;;;;0.50;0.50;;;17.60;71.30;;;;;;3967372;29;20169;-65
2022/09/22 09:18:14;;;;;;;1.77;1.65;;;17.70;71.50;;;;;;3970334;29;20069;-64
2022/09/22 09:20:58;;;;;;;1.02;1.02;;;17.80;71.30;;;;;;3985515;29;20616;-59
2022/09/22 09:23:28;;;;;;;0.10;0.10;;;17.80;71.20;;;;;;3985704;29;20083;-60
2022/09/22 09:26:30;;;;;;;0.00;0.00;;;17.80;70.90;;;;;;3985540;29;20066;-65
2022/09/22 09:28:55;;;;;;;0.88;0.88;;;17.90;70.60;;;;;;3986038;29;20054;-64
2022/09/22 09:31:41;;;;;;;0.00;0.00;;;17.90;70.50;;;;;;3985677;29;20062;-64
2022/09/22 09:34:06;;;;;;;0.00;0.00;;;17.90;70.30;;;;;;3985284;29;20065;-64
2022/09/22 09:36:51;;;;;;;0.20;0.20;;;17.90;70.20;;;;;;3970759;29;20070;-64
2022/09/22 09:39:20;;;;;;;0.00;0.00;;;17.90;70.10;;;;;;3970511;29;20051;-64
2022/09/22 09:41:45;;;;;;;0.30;0.30;;;18.00;70.10;;;;;;3981521;29;20091;-60
2022/09/22 09:44:11;;;;;;;0.00;0.00;;;18.00;70.00;;;;;;3985719;29;20414;-60
2022/09/22 09:47:06;;;;;;;2.58;0.73;;;18.00;69.80;;;;;;3985023;29;20479;-59
2022/09/22 09:49:47;;;;;;;0.43;0.43;;;18.00;69.50;;;;;;3985644;29;20073;-60
2022/09/22 09:52:14;;;;;;;0.00;0.00;;;18.10;69.40;;;;;;3985279;29;20399;-59
2022/09/22 09:54:38;;;;;;;1.95;1.77;;;18.10;69.20;;;;;;3985381;29;20062;-58
2022/09/22 09:57:19;;;;;;;0.35;0.35;;;18.10;69.40;;;;;;3984991;29;20521;-59
2022/09/22 10:02:35;;;;;;;0.00;0.00;;;18.20;70.30;;;;;;3967999;29;20422;-59
2022/09/22 10:05:25;;;;;;;0.75;0.75;;;18.20;71.30;;;;;;3985889;29;20052;-59
2022/09/22 10:07:50;;;;;;;7.53;2.88;;;18.20;70.00;;;;;;3981491;29;20058;-59
2022/09/22 10:10:36;;;;;;;2.97;1.00;;;18.20;69.70;;;;;;3986740;29;20049;-58
2022/09/22 10:13:26;;;;;;;0.43;0.43;;;18.20;69.40;;;;;;3987587;29;20064;-59
2022/09/22 10:16:21;;;;;;;8.18;2.42;;;18.30;69.20;;;;;;3987601;29;20057;-59
2022/09/22 10:19:21;;;;;;;1.20;1.20;;;18.30;68.90;;;;;;3986980;29;20085;-59
2022/09/22 10:22:21;;;;;;;64.97;2.92;;;18.30;68.60;;;;;;3987257;29;20512;-59
2022/09/22 10:25:04;;;;;;;1.15;1.05;;;18.30;68.50;;;;;;3987415;29;20607;-59
2022/09/22 10:27:30;;;;;;;0.38;0.38;;;18.40;67.90;;;;;;3986490;29;20069;-59
2022/09/22 10:30:21;;;;;;;0.32;0.32;;;18.40;67.70;;;;;;3972556;29;20526;-59
2022/09/22 10:33:12;;;;;;;3.83;2.45;;;18.40;67.60;;;;;;3972598;29;20051;-59
2022/09/22 10:36:04;;;;;;;1.20;0.98;;;18.40;67.20;;;;;;3960819;29;20058;-63
2022/09/22 10:38:28;;;;;;;1.38;1.27;;;18.40;67.30;;;;;;3984277;29;20050;-63
2022/09/22 10:41:13;;;;;;;0.40;0.40;;;18.40;67.30;;;;;;3988084;29;20096;-64
2022/09/22 10:43:46;;;;;;;0.00;0.00;;;18.40;67.10;;;;;;3997315;29;20136;-63
2022/09/22 10:46:34;;;;;;;0.10;0.10;;;18.50;67.10;;;;;;4001798;29;20056;-63
2022/09/22 10:49:30;;;;;;;0.52;0.38;;;18.50;66.70;;;;;;3987242;29;20065;-64
2022/09/22 10:52:04;;;;;;;0.60;0.60;;;18.50;66.30;;;;;;3987761;29;20391;-63
2022/09/22 10:55:14;;;;;;;0.10;0.10;;;18.50;66.30;;;;;;3988006;29;20057;-64
2022/09/22 10:58:26;;;;;;;0.00;0.00;;;18.60;66.20;;;;;;3986834;29;20049;-63
2022/09/22 11:01:13;;;;;;;;;;;18.60;65.60;;;;;;3987402;29;20053;-63
2022/09/22 11:04:14;;;;;;;0.05;0.05;;;18.60;65.60;;;;;;3996996;29;20019;-63
2022/09/22 11:13:06;;;;;;;0.00;0.00;;;18.60;65.50;;;;;;3983153;29;20062;-63
2022/09/22 11:15:42;;;;;;;0.08;0.08;;;18.60;65.50;;;;;;3982201;29;20046;-60
2022/09/22 11:18:36;;;;;;;0.00;0.00;;;18.50;65.40;;;;;;3987376;29;20057;-59
2022/09/22 11:21:15;;;;;;;3.33;1.33;;;18.60;65.40;;;;;;3986764;29;20529;-58
2022/09/22 11:24:05;;;;;;;1.45;1.35;;;18.50;65.50;;;;;;3987196;29;20133;-59
2022/09/22 11:26:49;;;;;;;0.20;0.20;;;18.50;65.50;;;;;;3986706;29;20068;-59
2022/09/22 11:29:52;;;;;;;3.65;0.30;;;18.50;65.20;;;;;;3986622;29;20363;-58
2022/09/22 11:33:01;;;;;;;0.00;0.00;;;18.50;65.10;;;;;;3986382;29;20098;-59
2022/09/22 11:35:58;;;;;;;0.00;0.00;;;18.50;65.10;;;;;;3958086;29;20465;-58
2022/09/22 11:39:00;;;;;;;3.83;0.73;;;18.50;64.60;;;;;;3966670;29;20214;-62
2022/09/22 11:41:33;;;;;;;2.55;1.48;;;18.60;64.00;;;;;;3981120;29;20089;-63
2022/09/22 11:44:22;;;;;;;0.10;0.10;;;18.60;64.30;;;;;;3986972;29;20050;-63
2022/09/22 11:47:26;;;;;;;0.25;0.25;;;18.60;64.20;;;;;;3986910;29;20044;-63
2022/09/22 11:50:30;;;;;;;0.30;0.30;;;18.60;63.90;;;;;;3986029;29;20474;-63
2022/09/22 11:53:38;;;;;;;0.00;0.00;;;18.60;63.70;;;;;;3986252;29;20053;-63
2022/09/22 11:56:31;;;;;;;0.40;0.40;;;18.60;63.50;;;;;;3985544;29;20049;-64
2022/09/22 11:59:25;;;;;;;0.00;0.00;;;18.60;64.30;;;;;;3985316;29;20080;-64
2022/09/22 12:02:16;;;;;;;0.17;0.17;;;18.60;63.30;;;;;;3986125;29;20489;-63
2022/09/22 12:05:02;;;;;;;0.00;0.00;;;18.60;63.40;;;;;;3974258;29;20528;-63
2022/09/22 12:07:28;;;;;;;0.08;0.08;;;18.60;63.90;;;;;;3985631;29;20178;-63
2022/09/22 12:10:16;;;;;;;0.00;0.00;;;18.60;64.00;;;;;;3972161;29;20073;-63
2022/09/22 12:12:42;;;;;;;0.17;0.17;;;18.60;64.00;;;;;;3985112;29;20403;-64
2022/09/22 12:15:29;;;;;;;0.00;0.00;;;18.70;63.70;;;;;;3984603;29;20531;-62
2022/09/22 12:17:58;;;;;;;0.38;0.38;;;18.60;63.40;;;;;;3985800;29;20495;-62
2022/09/22 12:20:48;;;;;;;0.00;0.00;;;18.70;63.40;;;;;;3985703;29;20069;-63
2022/09/22 12:23:37;;;;;;;0.65;0.52;;;18.70;63.10;;;;;;3986012;29;20065;-61
2022/09/22 12:26:28;;;;;;;0.00;0.00;;;18.70;62.80;;;;;;3970579;29;20058;-61
2022/09/22 12:28:50;;;;;;;0.00;0.00;;;18.80;62.40;;;;;;3956167;29;20062;-61
2022/09/22 12:31:37;;;;;;;0.20;0.20;;;18.80;62.40;;;;;;3983287;29;20438;-61
2022/09/22 12:34:21;;;;;;;0.00;0.00;;;18.80;62.30;;;;;;3984585;29;20057;-61
2022/09/22 12:36:43;;;;;;;0.75;0.75;;;18.80;61.90;;;;;;3985693;29;20136;-61
2022/09/22 12:39:17;;;;;;;0.00;0.00;;;18.80;61.80;;;;;;3970977;29;20079;-61
2022/09/22 12:41:47;;;;;;;0.00;0.00;;;18.80;61.70;;;;;;3955505;29;20606;-61
2022/09/22 12:44:31;;;;;;;0.00;0.00;;;18.90;62.00;;;;;;3960246;29;20138;-61
2022/09/22 12:46:58;;;;;;;0.65;0.65;;;18.90;61.60;;;;;;3970444;29;20483;-61
2022/09/22 12:49:22;;;;;;;0.10;0.10;;;18.90;61.80;;;;;;3985475;29;20444;-61
2022/09/22 12:51:44;;;;;;;0.45;0.45;;;18.90;62.00;;;;;;3975716;29;20107;-61
2022/09/22 12:54:46;;;;;;;0.10;0.10;;;19.00;62.10;;;;;;3985307;29;20366;-61
2022/09/22 12:57:29;;;;;;;0.00;0.00;;;18.90;61.80;;;;;;3985533;29;20046;-61
2022/09/22 13:00:22;;;;;;;0.00;0.00;;;19.00;62.00;;;;;;3985634;29;20052;-61
2022/09/22 13:02:46;;;;;;;0.00;0.00;;;19.00;62.10;;;;;;3985401;29;20047;-61
2022/09/22 13:05:33;;;;;;;0.10;0.10;;;19.00;62.30;;;;;;3996640;29;20519;-61
2022/09/22 13:07:56;;;;;;;0.13;0.13;;;19.00;62.20;;;;;;3970817;29;20104;-62
2022/09/22 13:10:59;;;;;;;0.00;0.00;;;19.00;62.10;;;;;;3979910;29;20056;-61
2022/09/22 13:13:44;;;;;;;0.00;0.00;;;19.00;61.90;;;;;;3983850;29;20521;-61
2022/09/22 13:16:36;;;;;;;0.00;0.00;;;19.00;61.90;;;;;;3984599;29;20116;-61
2022/09/22 13:19:16;;;;;;;;;;;19.00;61.70;;;;;;3986153;29;20065;-63
2022/09/22 13:22:14;;;;;;;0.70;0.70;;;19.00;62.00;;;;;;3986161;29;19931;-61
2022/09/22 13:24:36;;;;;;;0.00;0.00;;;19.00;62.00;;;;;;3985625;29;20081;-61
2022/09/22 13:27:04;;;;;;;0.00;0.00;;;19.00;62.10;;;;;;3985649;29;20416;-62
2022/09/22 13:29:58;;;;;;;0.00;0.00;;;19.00;62.10;;;;;;3985423;29;20066;-63
2022/09/22 13:32:39;;;;;;;0.05;0.05;;;19.00;62.20;;;;;;3985378;29;20053;-63
2022/09/22 13:35:01;;;;;;;0.00;0.00;;;19.00;62.10;;;;;;3985928;29;20127;-63
2022/09/22 13:37:24;;;;;;;0.20;0.20;;;19.00;62.90;;;;;;3985703;29;20064;-62
2022/09/22 13:39:49;;;;;;;0.00;0.00;;;19.00;62.10;;;;;;3985269;29;20058;-63
2022/09/22 13:42:17;;;;;;;0.00;0.00;;;19.00;62.10;;;;;;3985388;29;20050;-63
2022/09/22 13:45:05;;;;;;;0.00;0.00;;;19.00;63.10;;;;;;3971057;29;20103;-63
2022/09/22 13:47:47;;;;;;;0.10;0.10;;;19.00;62.20;;;;;;3973412;29;20065;-63
2022/09/22 13:50:28;;;;;;;0.00;0.00;;;19.00;62.30;;;;;;3973520;29;20230;-62
2022/09/22 13:52:52;;;;;;;0.10;0.10;;;19.10;62.50;;;;;;3973117;29;20059;-63